Aérodrome :
LOGIN :

S'inscrire | Disclaimer

   EN    FR    IT 

 










Légende :    VFR   VFR Marginal   IFR   IFR Intensif   IFR Très Intensif
Visi : 
Plafond : 
>= 8 km
>= 3000ft
5 à 8 km
1000 à 3000 ft
1500m à 5 km
500 à 1000 ft
800 à 1500m
200 à 500 ft
< 800m
< 200 ft
Symboles :   Orages  Brouillard  Fortes neiges  Fortes précipitations  Vent > 20 kt
SIGMETs :   Divers  Orages  Givrage  Turbulence  Onde Orograph.  Cendres Volcan.






- Altitude de l'aérodrome : 330 ft
- Code IATA : LVA


LFOV - Laval-Entrammes

DERNIER METAR :
  • 012300Z AUTO VRB02KT CAVOK 13/09 Q1022

METARs EXPIRÉS :
  • 012230Z AUTO 25003KT CAVOK 14/09 Q1022
  • 011630Z AUTO 22006KT 170V290 9999 FEW045 OVC074 21/09 Q1021
  • 012200Z AUTO 24003KT CAVOK 14/10 Q1022
  • 012130Z AUTO 23003KT CAVOK 15/10 Q1022
  • 012100Z AUTO 25002KT CAVOK 15/10 Q1021
  • 012030Z AUTO 26002KT //// // NSC 16/10 Q1021

TAF N/A



MET'MAP, la Météo Aéronautique d'un coup d'oeil ! - Copyright ORBIFLY Décembre 2007 - Disclaimer

ORBIFLY MET'MAP TEAM :

Programmation & Développement : Alexandra Zaïnal
Sur une idée originale de : Baudouin d'Aumeries
Soutien technique & logistique : Manuel Goepfert
Assistance : Marc-Olivier Méhu




SOURCES & CREDITS :

   NOAA